Time;durP1;ratioP1;P1;durP2;ratioP2;P2;SDS_P1;SDS_P2;PMS_P1;PMS_P2;Temp;Humidity;BMP_temperature;BMP_pressure;BME280_temperature;BME280_humidity;BME280_pressure;Samples;Min_cycle;Max_cycle;Signal;HPM_P1;HPM_P2
2022/08/01 00:01:52;;;;;;;2.53;0.90;;;17.30;99.90;;;;;;5091373;28;20026;-83
2022/08/01 00:04:17;;;;;;;2.40;1.10;;;17.40;99.90;;;;;;5109421;28;20778;-83
2022/08/01 00:06:43;;;;;;;2.47;0.80;;;17.30;99.90;;;;;;5091264;28;20154;-83
2022/08/01 00:09:09;;;;;;;3.83;1.15;;;17.40;99.90;;;;;;5090662;28;20083;-84
2022/08/01 00:11:34;;;;;;;2.05;1.00;;;17.30;99.90;;;;;;5109505;28;20299;-83
2022/08/01 00:14:00;;;;;;;3.63;0.80;;;17.30;99.90;;;;;;5089244;28;20450;-84
2022/08/01 00:16:26;;;;;;;2.28;0.90;;;17.30;99.90;;;;;;5090935;28;20027;-83
2022/08/01 00:18:52;;;;;;;4.43;1.55;;;17.40;99.90;;;;;;5108429;28;20026;-84
2022/08/01 00:21:18;;;;;;;5.32;0.88;;;17.30;99.90;;;;;;5078790;28;20058;-84
2022/08/01 00:23:45;;;;;;;1.88;1.00;;;17.30;99.90;;;;;;5109165;28;20032;-83
2022/08/01 00:26:12;;;;;;;1.40;0.73;;;17.30;99.90;;;;;;5109204;28;20032;-83
2022/08/01 00:28:38;;;;;;;1.88;0.98;;;17.30;99.90;;;;;;5090217;28;20023;-83
2022/08/01 00:31:04;;;;;;;1.50;0.80;;;17.20;99.90;;;;;;5090303;28;20043;-83
2022/08/01 00:33:29;;;;;;;1.85;0.93;;;17.20;99.90;;;;;;5089840;28;20568;-84
2022/08/01 00:35:55;;;;;;;1.02;0.70;;;17.20;99.90;;;;;;5090270;28;20122;-84
2022/08/01 00:38:21;;;;;;;4.72;1.30;;;17.20;99.90;;;;;;5090037;28;20056;-83
2022/08/01 00:40:47;;;;;;;4.18;1.10;;;17.10;99.90;;;;;;5091107;28;20118;-84
2022/08/01 00:43:13;;;;;;;7.57;0.98;;;17.10;99.90;;;;;;5091239;28;20119;-82
2022/08/01 00:45:38;;;;;;;1.33;0.82;;;17.10;99.90;;;;;;5090504;28;20047;-83
2022/08/01 00:48:04;;;;;;;4.15;1.05;;;17.10;99.90;;;;;;5090329;28;20519;-83
2022/08/01 00:50:30;;;;;;;1.95;0.75;;;17.10;99.90;;;;;;5094237;28;20379;-82
2022/08/01 00:52:58;;;;;;;3.67;1.08;;;17.00;99.90;;;;;;5111534;28;20080;-82
2022/08/01 00:55:24;;;;;;;1.15;0.73;;;17.10;99.90;;;;;;5103396;28;20024;-85
2022/08/01 00:57:50;;;;;;;2.75;0.70;;;17.00;99.90;;;;;;5091542;28;20535;-82
2022/08/01 01:00:16;;;;;;;1.70;0.68;;;17.00;99.90;;;;;;5108187;28;20031;-83
2022/08/01 01:02:41;;;;;;;4.88;1.15;;;17.00;99.90;;;;;;5091404;28;20027;-86
2022/08/01 01:05:08;;;;;;;1.33;0.60;;;17.00;99.90;;;;;;5091720;28;20314;-84
2022/08/01 01:08:07;;;;;;;2.17;0.75;;;17.00;99.90;;;;;;5092307;28;20062;-85
2022/08/01 01:10:55;;;;;;;5.10;1.02;;;16.90;99.90;;;;;;5109457;28;20069;-85
2022/08/01 01:13:37;;;;;;;2.97;1.05;;;16.90;99.90;;;;;;5089534;28;20024;-85
2022/08/01 01:16:10;;;;;;;2.15;0.85;;;16.90;99.90;;;;;;5071306;28;20039;-83
2022/08/01 01:18:47;;;;;;;3.47;1.00;;;16.90;99.90;;;;;;5087204;28;20159;-83
2022/08/01 01:21:16;;;;;;;3.90;1.13;;;16.90;99.90;;;;;;5108083;28;20058;-84
2022/08/01 01:24:10;;;;;;;2.13;1.05;;;16.80;99.90;;;;;;5090370;28;20030;-84
2022/08/01 01:26:39;;;;;;;2.45;1.00;;;16.80;99.90;;;;;;5107756;28;20039;-82
2022/08/01 01:29:10;;;;;;;4.72;1.30;;;16.80;99.90;;;;;;5107082;28;20069;-84
2022/08/01 01:31:49;;;;;;;1.83;0.82;;;16.80;99.90;;;;;;5093386;28;20042;-83
2022/08/01 01:34:17;;;;;;;3.42;1.02;;;16.70;99.90;;;;;;5081197;28;20024;-83
2022/08/01 01:36:45;;;;;;;3.17;1.00;;;16.80;99.90;;;;;;5095202;27;20028;-82
2022/08/01 01:39:14;;;;;;;2.97;1.17;;;16.80;99.90;;;;;;5095461;27;20068;-83
2022/08/01 01:41:40;;;;;;;2.55;1.23;;;16.70;99.90;;;;;;5092980;27;20471;-83
2022/08/01 01:44:09;;;;;;;11.38;1.10;;;16.70;99.90;;;;;;5111337;27;20038;-82
2022/08/01 01:46:36;;;;;;;4.05;1.20;;;16.70;99.90;;;;;;5087089;27;20036;-82
2022/08/01 01:49:03;;;;;;;2.28;0.90;;;16.70;99.90;;;;;;5095800;27;20043;-81
2022/08/01 01:51:30;;;;;;;2.45;1.02;;;16.70;99.90;;;;;;5082919;27;20036;-82
2022/08/01 01:53:57;;;;;;;5.03;1.17;;;16.60;99.90;;;;;;5111835;27;20172;-84
2022/08/01 01:56:25;;;;;;;6.30;1.20;;;16.60;99.90;;;;;;5118353;27;20031;-82
2022/08/01 01:58:59;;;;;;;3.03;0.90;;;16.60;99.90;;;;;;5113011;27;20093;-80
2022/08/01 02:01:29;;;;;;;3.53;1.48;;;16.50;99.90;;;;;;5093488;27;20031;-80
2022/08/01 02:03:56;;;;;;;5.45;1.10;;;16.60;99.90;;;;;;5079161;27;20415;-82
2022/08/01 02:06:25;;;;;;;7.47;1.23;;;16.50;99.90;;;;;;5105991;27;20549;-81
2022/08/01 02:08:53;;;;;;;2.55;1.15;;;16.50;99.90;;;;;;5102608;27;20053;-81
2022/08/01 02:11:21;;;;;;;2.72;0.95;;;16.50;99.90;;;;;;5100110;27;20043;-81
2022/08/01 02:14:01;;;;;;;4.35;1.00;;;16.50;99.90;;;;;;5081883;27;20121;-81
2022/08/01 02:16:31;;;;;;;2.15;0.80;;;16.50;99.90;;;;;;5109328;27;20042;-82
2022/08/01 02:18:57;;;;;;;2.17;1.02;;;16.50;99.90;;;;;;5100863;27;20032;-82
2022/08/01 02:21:41;;;;;;;2.58;1.20;;;16.50;99.90;;;;;;5096833;28;20035;-82
2022/08/01 02:24:12;;;;;;;5.22;1.10;;;16.50;99.90;;;;;;5071278;28;20028;-82
2022/08/01 02:26:41;;;;;;;3.67;0.98;;;16.50;99.90;;;;;;5089309;28;20094;-82
2022/08/01 02:29:12;;;;;;;4.43;1.98;;;16.50;99.90;;;;;;5070694;28;20024;-83
2022/08/01 02:31:41;;;;;;;2.50;1.00;;;16.50;99.90;;;;;;5088626;28;20031;-83
2022/08/01 02:34:09;;;;;;;5.07;0.82;;;16.40;99.90;;;;;;5071062;28;20020;-83
2022/08/01 02:36:36;;;;;;;1.70;0.80;;;16.40;99.90;;;;;;5072415;28;20040;-82
2022/08/01 02:39:07;;;;;;;4.20;1.30;;;16.40;99.90;;;;;;5091625;28;20214;-81
2022/08/01 02:41:38;;;;;;;8.93;1.92;;;16.30;99.90;;;;;;5090610;28;20488;-83
2022/08/01 02:44:06;;;;;;;2.30;1.30;;;16.20;99.90;;;;;;5091327;28;20063;-82
2022/08/01 02:46:38;;;;;;;4.72;1.10;;;16.20;99.90;;;;;;5090761;28;20028;-82
2022/08/01 02:49:07;;;;;;;3.10;1.33;;;16.10;99.90;;;;;;5091516;28;20023;-82
2022/08/01 02:51:35;;;;;;;2.85;1.00;;;16.00;99.90;;;;;;5109220;28;20031;-82
2022/08/01 02:54:03;;;;;;;5.07;1.15;;;16.00;99.90;;;;;;5090853;28;20089;-83
2022/08/01 02:56:37;;;;;;;4.07;1.50;;;15.90;99.90;;;;;;5090638;28;20024;-83
2022/08/01 02:59:05;;;;;;;2.55;1.00;;;15.80;99.90;;;;;;5091560;28;20057;-83
2022/08/01 03:01:34;;;;;;;3.80;1.30;;;15.80;99.90;;;;;;5109107;28;20080;-82
2022/08/01 03:03:59;;;;;;;3.22;1.23;;;15.70;99.90;;;;;;5091316;28;20020;-82
2022/08/01 03:06:26;;;;;;;4.43;1.05;;;15.70;99.90;;;;;;5109110;28;20084;-82
2022/08/01 03:08:53;;;;;;;3.97;1.48;;;15.70;99.90;;;;;;5090702;28;20581;-82
2022/08/01 03:11:20;;;;;;;7.63;1.33;;;15.60;99.90;;;;;;5091186;28;20131;-81
2022/08/01 03:13:48;;;;;;;2.15;1.10;;;15.50;99.90;;;;;;5110067;28;20028;-82
2022/08/01 03:16:15;;;;;;;2.17;1.20;;;15.50;99.90;;;;;;5091030;28;20041;-82
2022/08/01 03:18:44;;;;;;;3.28;1.08;;;15.50;99.90;;;;;;5090506;28;20062;-82
2022/08/01 03:21:13;;;;;;;2.15;0.90;;;15.40;99.90;;;;;;5109782;28;20077;-82
2022/08/01 03:23:41;;;;;;;3.75;0.90;;;15.30;99.90;;;;;;5100036;28;20035;-83
2022/08/01 03:26:07;;;;;;;2.42;0.98;;;15.30;99.90;;;;;;5100362;28;20039;-82
2022/08/01 03:28:33;;;;;;;3.45;1.20;;;15.20;99.90;;;;;;5093523;28;20032;-82
2022/08/01 03:31:01;;;;;;;4.00;1.27;;;15.20;99.90;;;;;;5110279;28;20092;-83
2022/08/01 03:33:27;;;;;;;5.13;1.38;;;15.20;99.90;;;;;;5091251;28;20069;-82
2022/08/01 03:35:55;;;;;;;2.70;1.20;;;15.20;99.90;;;;;;5090326;28;20042;-83
2022/08/01 03:38:26;;;;;;;3.63;1.35;;;15.20;99.90;;;;;;5090722;28;20030;-82
2022/08/01 03:41:05;;;;;;;5.80;1.00;;;15.20;99.90;;;;;;5091324;28;20081;-82
2022/08/01 03:43:37;;;;;;;1.90;1.02;;;15.20;99.90;;;;;;5090742;28;20031;-82
2022/08/01 03:46:07;;;;;;;3.28;0.93;;;15.10;99.90;;;;;;5089619;28;20947;-81
2022/08/01 03:48:38;;;;;;;3.30;0.80;;;15.20;99.90;;;;;;5090494;28;20084;-82
2022/08/01 03:51:05;;;;;;;2.65;1.17;;;15.10;99.90;;;;;;5108016;28;20038;-82
2022/08/01 03:53:33;;;;;;;4.40;0.85;;;15.10;99.90;;;;;;5107660;28;20426;-82
2022/08/01 03:56:02;;;;;;;2.22;0.85;;;15.10;99.90;;;;;;5090863;28;20028;-83
2022/08/01 03:58:29;;;;;;;2.58;1.05;;;15.00;99.90;;;;;;5090310;28;20689;-82
2022/08/01 04:00:56;;;;;;;1.70;0.80;;;15.00;99.90;;;;;;5107830;28;20480;-82
2022/08/01 04:03:22;;;;;;;3.05;1.10;;;15.00;99.90;;;;;;5108622;28;20027;-81
2022/08/01 04:05:48;;;;;;;2.72;0.60;;;15.00;99.90;;;;;;5089707;28;20031;-82
2022/08/01 04:08:13;;;;;;;2.28;0.70;;;14.90;99.90;;;;;;5090227;28;20237;-83
2022/08/01 04:10:39;;;;;;;;;;;14.90;99.90;;;;;;5090574;28;20035;-82
2022/08/01 04:13:05;;;;;;;4.20;0.70;;;14.90;99.90;;;;;;5107832;28;20368;-82
2022/08/01 04:15:30;;;;;;;2.78;0.90;;;15.00;99.90;;;;;;5108298;28;20055;-82
2022/08/01 04:17:56;;;;;;;2.38;0.70;;;14.90;99.90;;;;;;5107544;28;20038;-82
2022/08/01 04:20:22;;;;;;;2.58;0.70;;;14.90;99.90;;;;;;5090235;28;20019;-82
2022/08/01 04:22:47;;;;;;;;;;;14.90;99.90;;;;;;5090183;28;20534;-82
2022/08/01 04:25:19;;;;;;;2.50;0.65;;;14.80;99.90;;;;;;5090061;28;19904;-82
2022/08/01 04:27:49;;;;;;;3.75;0.80;;;14.90;99.90;;;;;;5089920;28;20521;-82
2022/08/01 04:30:17;;;;;;;4.43;1.00;;;14.80;99.90;;;;;;5101224;28;20131;-82
2022/08/01 04:32:44;;;;;;;4.70;0.90;;;14.90;99.90;;;;;;5106052;28;20080;-82
2022/08/01 04:35:16;;;;;;;1.63;0.57;;;14.80;99.90;;;;;;5107162;28;20587;-82
2022/08/01 04:37:44;;;;;;;2.15;0.60;;;14.90;99.90;;;;;;5098595;28;20052;-81
2022/08/01 04:40:11;;;;;;;2.40;0.80;;;14.90;99.90;;;;;;5089384;28;20483;-82
2022/08/01 04:42:36;;;;;;;5.25;0.90;;;15.00;99.90;;;;;;5089386;28;20049;-82
2022/08/01 04:45:03;;;;;;;2.13;0.82;;;15.20;99.90;;;;;;5089693;28;20024;-82
2022/08/01 04:47:30;;;;;;;2.05;0.90;;;15.50;99.90;;;;;;5089389;28;20038;-83
2022/08/01 04:49:56;;;;;;;3.63;0.93;;;15.80;99.90;;;;;;5088262;28;20408;-83
2022/08/01 04:52:22;;;;;;;2.55;0.77;;;16.00;99.90;;;;;;5089419;28;20028;-82
2022/08/01 04:54:48;;;;;;;1.20;0.60;;;16.10;99.90;;;;;;5088934;28;20109;-82
2022/08/01 04:57:14;;;;;;;1.70;0.60;;;16.30;99.90;;;;;;5088834;28;20026;-81
2022/08/01 04:59:43;;;;;;;1.95;0.85;;;16.50;99.90;;;;;;5089351;28;20122;-82
2022/08/01 05:02:18;;;;;;;2.47;0.75;;;16.70;99.90;;;;;;5088544;28;20114;-82
2022/08/01 05:04:45;;;;;;;2.28;1.10;;;16.90;99.90;;;;;;5089975;28;20114;-82
2022/08/01 05:07:12;;;;;;;4.30;0.80;;;17.00;99.90;;;;;;5111566;28;20036;-82
2022/08/01 05:09:41;;;;;;;5.28;1.40;;;17.10;99.90;;;;;;5092217;28;20047;-82
2022/08/01 05:12:07;;;;;;;1.40;0.65;;;17.20;99.90;;;;;;5092980;28;20028;-83
2022/08/01 05:14:33;;;;;;;3.25;0.63;;;17.30;99.90;;;;;;5092865;28;20023;-81
2022/08/01 05:17:02;;;;;;;8.70;0.80;;;17.50;99.90;;;;;;5092737;28;20028;-83
2022/08/01 05:19:30;;;;;;;5.30;0.77;;;17.50;99.90;;;;;;5092326;28;20027;-82
2022/08/01 05:21:56;;;;;;;2.35;0.90;;;17.70;99.90;;;;;;5091659;28;20043;-83
2022/08/01 05:24:22;;;;;;;4.70;0.60;;;17.90;99.90;;;;;;5110649;28;20020;-82
2022/08/01 05:26:48;;;;;;;2.20;0.70;;;18.10;99.90;;;;;;5092465;28;20031;-82
2022/08/01 05:29:15;;;;;;;3.72;0.60;;;18.40;99.90;;;;;;5091639;28;20024;-82
2022/08/01 05:31:41;;;;;;;1.42;0.60;;;18.60;99.90;;;;;;5110352;28;20031;-82
2022/08/01 05:34:06;;;;;;;2.08;0.93;;;18.80;99.90;;;;;;5092846;28;20530;-82
2022/08/01 05:36:32;;;;;;;2.22;0.70;;;18.90;99.90;;;;;;5092104;28;20099;-83
2022/08/01 05:38:57;;;;;;;3.70;0.82;;;19.10;99.90;;;;;;5110169;28;20468;-82
2022/08/01 05:41:23;;;;;;;4.50;1.10;;;19.30;99.90;;;;;;5092558;28;20023;-82
2022/08/01 05:43:49;;;;;;;3.45;0.80;;;19.50;99.90;;;;;;5092000;28;20032;-83
2022/08/01 05:46:14;;;;;;;2.60;1.17;;;19.50;99.90;;;;;;5091714;28;20024;-82
2022/08/01 05:48:40;;;;;;;2.00;0.82;;;19.80;99.90;;;;;;5091738;28;20051;-83
2022/08/01 05:51:06;;;;;;;2.97;0.80;;;20.20;99.90;;;;;;5092273;28;20036;-82
2022/08/01 05:53:34;;;;;;;2.83;0.90;;;20.50;99.90;;;;;;5110363;28;20035;-82
2022/08/01 05:56:00;;;;;;;12.93;1.55;;;20.90;99.90;;;;;;5092262;28;20491;-82
2022/08/01 05:58:26;;;;;;;7.05;2.05;;;21.30;99.90;;;;;;5091472;28;20127;-81
2022/08/01 06:00:52;;;;;;;1.45;0.88;;;21.80;99.90;;;;;;5109804;28;20130;-81
2022/08/01 06:03:18;;;;;;;1.80;0.68;;;22.40;99.90;;;;;;5091927;28;20024;-82
2022/08/01 06:05:43;;;;;;;2.53;0.70;;;23.00;99.90;;;;;;5091205;28;20510;-83
2022/08/01 06:08:09;;;;;;;7.70;1.15;;;23.70;99.90;;;;;;5091394;28;20051;-81
2022/08/01 06:10:35;;;;;;;6.35;0.73;;;24.40;99.50;;;;;;5109759;28;20051;-81
2022/08/01 06:13:02;;;;;;;3.83;0.90;;;25.10;98.10;;;;;;5109493;28;20031;-83
2022/08/01 06:15:32;;;;;;;3.38;0.90;;;25.80;97.30;;;;;;5090869;28;20036;-82
2022/08/01 06:17:58;;;;;;;2.72;0.80;;;26.20;95.80;;;;;;5108418;28;20042;-81
2022/08/01 06:20:24;;;;;;;8.40;0.77;;;26.40;94.80;;;;;;5109622;28;20139;-82
2022/08/01 06:22:51;;;;;;;4.75;0.77;;;26.70;93.10;;;;;;5091429;28;20118;-83
2022/08/01 06:25:17;;;;;;;12.65;1.23;;;27.70;91.30;;;;;;5090732;28;20039;-82
2022/08/01 06:27:43;;;;;;;4.20;0.80;;;29.10;86.20;;;;;;5090958;28;20028;-81
2022/08/01 06:30:09;;;;;;;3.00;0.70;;;29.90;79.60;;;;;;5108038;28;20043;-82
2022/08/01 06:32:35;;;;;;;6.20;0.70;;;30.60;72.30;;;;;;5090519;28;20392;-82
2022/08/01 06:35:01;;;;;;;4.07;0.80;;;31.30;67.70;;;;;;5090564;28;20028;-81
2022/08/01 06:37:31;;;;;;;4.00;0.70;;;32.00;64.50;;;;;;5108586;28;20024;-82
2022/08/01 06:40:08;;;;;;;6.07;0.70;;;32.00;61.10;;;;;;5108391;28;20055;-82
2022/08/01 06:42:37;;;;;;;6.63;1.15;;;32.80;57.10;;;;;;5108075;28;20100;-83
2022/08/01 06:45:09;;;;;;;2.80;0.65;;;33.10;54.50;;;;;;5089700;28;20027;-83
2022/08/01 06:47:34;;;;;;;1.73;0.90;;;33.40;53.10;;;;;;5108258;28;20012;-83
2022/08/01 06:50:00;;;;;;;1.88;0.80;;;33.50;53.10;;;;;;5107856;28;20623;-82
2022/08/01 06:52:26;;;;;;;2.38;0.93;;;33.50;51.20;;;;;;5090169;28;20226;-83
2022/08/01 06:54:51;;;;;;;1.40;0.60;;;33.70;49.50;;;;;;5108632;28;20031;-82
2022/08/01 06:57:17;;;;;;;1.83;0.73;;;34.00;49.20;;;;;;5089175;28;20133;-82
2022/08/01 06:59:43;;;;;;;2.53;0.75;;;34.20;47.90;;;;;;5107328;28;20035;-83
2022/08/01 07:02:09;;;;;;;1.85;0.73;;;34.40;47.50;;;;;;5089842;28;20027;-82
2022/08/01 07:04:35;;;;;;;4.80;0.70;;;34.60;47.60;;;;;;5108118;28;20042;-82
2022/08/01 07:07:00;;;;;;;6.20;1.00;;;34.80;46.50;;;;;;5108309;28;20555;-82
2022/08/01 07:09:27;;;;;;;0.80;0.52;;;34.90;44.40;;;;;;5107613;28;20490;-82
2022/08/01 07:11:53;;;;;;;6.95;1.02;;;35.00;43.60;;;;;;5092563;28;20503;-83
2022/08/01 07:14:19;;;;;;;2.17;0.98;;;35.10;44.20;;;;;;5095011;28;20122;-81
2022/08/01 07:16:45;;;;;;;6.18;1.05;;;35.10;45.30;;;;;;5095926;28;20076;-81
2022/08/01 07:19:12;;;;;;;4.82;1.10;;;34.60;45.40;;;;;;5108773;28;20023;-82
2022/08/01 07:21:38;;;;;;;4.15;1.15;;;34.60;45.10;;;;;;5090318;28;20028;-82
2022/08/01 07:24:04;;;;;;;6.60;1.25;;;34.60;46.20;;;;;;5089916;28;20028;-82
2022/08/01 07:26:30;;;;;;;3.67;1.02;;;34.60;47.90;;;;;;5088700;28;20024;-80
2022/08/01 07:28:55;;;;;;;8.73;1.75;;;34.40;47.90;;;;;;5107786;28;20027;-81
2022/08/01 07:31:22;;;;;;;12.32;1.60;;;34.00;47.90;;;;;;5107488;28;20628;-82
2022/08/01 07:33:48;;;;;;;3.75;0.90;;;34.00;48.70;;;;;;5089126;28;20096;-81
2022/08/01 07:36:14;;;;;;;2.83;1.02;;;34.10;47.30;;;;;;5088792;28;20547;-82
2022/08/01 07:38:39;;;;;;;5.15;0.88;;;34.40;45.80;;;;;;5106876;28;20028;-82
2022/08/01 07:41:05;;;;;;;3.95;1.02;;;33.90;46.20;;;;;;5089206;28;20639;-82
2022/08/01 07:43:31;;;;;;;7.80;1.00;;;33.70;47.20;;;;;;5107104;28;20062;-81
2022/08/01 07:45:56;;;;;;;5.82;0.98;;;34.00;47.30;;;;;;5088757;28;20057;-81
2022/08/01 07:48:23;;;;;;;1.77;1.00;;;34.00;46.40;;;;;;5089176;28;20132;-81
2022/08/01 07:50:50;;;;;;;3.63;0.95;;;34.30;46.70;;;;;;5106312;28;20122;-79
2022/08/01 07:53:16;;;;;;;13.88;1.30;;;34.60;45.00;;;;;;5107430;28;20448;-80
2022/08/01 07:55:42;;;;;;;1.88;0.63;;;34.90;43.30;;;;;;5106658;28;20023;-81
2022/08/01 07:58:07;;;;;;;1.77;0.90;;;34.50;42.00;;;;;;5088680;28;20027;-81
2022/08/01 08:00:33;;;;;;;4.32;0.95;;;34.60;40.30;;;;;;5088337;28;20028;-80
2022/08/01 08:02:59;;;;;;;3.78;1.17;;;34.20;40.70;;;;;;5088835;28;20024;-81
2022/08/01 08:05:28;;;;;;;2.42;0.90;;;34.00;42.10;;;;;;5089164;28;20609;-80
2022/08/01 08:07:53;;;;;;;2.65;0.90;;;34.10;43.10;;;;;;5088911;28;20035;-79
2022/08/01 08:10:19;;;;;;;2.85;0.93;;;34.50;42.90;;;;;;5105897;28;20051;-81
2022/08/01 08:12:46;;;;;;;3.85;1.05;;;34.80;41.30;;;;;;5106993;28;20106;-81
2022/08/01 08:15:12;;;;;;;2.75;0.82;;;35.10;41.30;;;;;;5088255;28;20089;-81
2022/08/01 08:17:39;;;;;;;3.15;1.17;;;35.60;39.80;;;;;;5087943;28;20027;-81
2022/08/01 08:20:08;;;;;;;2.15;0.63;;;35.70;39.70;;;;;;5107100;28;20032;-80
2022/08/01 08:22:34;;;;;;;2.30;1.00;;;35.80;38.70;;;;;;5088528;28;20023;-80
2022/08/01 08:25:00;;;;;;;1.27;0.60;;;35.60;39.50;;;;;;5088944;28;20050;-81
2022/08/01 08:27:26;;;;;;;7.28;1.08;;;35.60;38.90;;;;;;5106547;28;20602;-80
2022/08/01 08:29:51;;;;;;;7.03;0.93;;;35.70;38.60;;;;;;5105725;28;20031;-80
2022/08/01 08:32:17;;;;;;;3.10;0.90;;;35.90;38.50;;;;;;5106676;28;20083;-79
2022/08/01 08:34:43;;;;;;;3.65;0.85;;;36.30;36.60;;;;;;5106687;28;20303;-80
2022/08/01 08:37:09;;;;;;;5.32;0.80;;;36.40;37.60;;;;;;5106199;28;20032;-80
2022/08/01 08:39:35;;;;;;;4.78;0.93;;;36.50;37.50;;;;;;5089183;28;20039;-81
2022/08/01 08:42:05;;;;;;;5.78;0.90;;;36.70;36.20;;;;;;5092345;28;20036;-82
2022/08/01 08:44:31;;;;;;;1.92;0.73;;;36.40;35.90;;;;;;5110219;28;20035;-81
2022/08/01 08:47:00;;;;;;;6.63;0.80;;;36.30;36.40;;;;;;5110940;28;20023;-81
2022/08/01 08:49:28;;;;;;;2.42;0.90;;;36.40;37.30;;;;;;5092044;28;20043;-81
2022/08/01 08:51:58;;;;;;;4.80;1.15;;;36.30;37.30;;;;;;5092111;28;20127;-80
2022/08/01 08:54:24;;;;;;;4.53;0.90;;;36.20;36.80;;;;;;5110673;28;20034;-80
2022/08/01 08:56:54;;;;;;;3.25;0.80;;;35.90;37.50;;;;;;5110417;28;20028;-80
2022/08/01 08:59:20;;;;;;;3.80;0.75;;;36.00;36.20;;;;;;5109739;28;20020;-81
2022/08/01 09:01:47;;;;;;;3.20;0.98;;;35.70;37.50;;;;;;5091521;28;20035;-81
2022/08/01 09:04:13;;;;;;;3.95;0.90;;;35.90;37.80;;;;;;5092282;28;20032;-80
2022/08/01 09:06:39;;;;;;;4.80;0.90;;;35.90;37.50;;;;;;5110457;28;20110;-81
2022/08/01 09:09:06;;;;;;;4.78;1.17;;;35.90;36.80;;;;;;5109905;28;20395;-81
2022/08/01 09:11:33;;;;;;;1.45;0.75;;;35.40;36.20;;;;;;5091697;28;20499;-79
2022/08/01 09:14:09;;;;;;;2.80;0.77;;;35.40;36.60;;;;;;5091391;28;20043;-80
2022/08/01 09:16:37;;;;;;;4.53;1.20;;;35.30;35.60;;;;;;5091224;28;20027;-79
2022/08/01 09:19:20;;;;;;;5.40;0.88;;;35.50;37.30;;;;;;5110059;28;20097;-81
2022/08/01 09:22:03;;;;;;;5.50;0.85;;;35.80;36.60;;;;;;5109938;28;20020;-80
2022/08/01 09:24:31;;;;;;;2.63;0.85;;;36.10;36.60;;;;;;5109479;28;20020;-80
2022/08/01 09:26:58;;;;;;;5.07;0.73;;;36.30;35.30;;;;;;5091997;28;20036;-80
2022/08/01 09:29:29;;;;;;;4.85;0.73;;;36.60;34.10;;;;;;5091225;28;20027;-81
2022/08/01 09:31:56;;;;;;;1.80;0.80;;;36.40;34.50;;;;;;5091280;28;20040;-81
2022/08/01 09:34:32;;;;;;;5.70;1.15;;;36.80;34.80;;;;;;5091022;28;20024;-80
2022/08/01 09:37:00;;;;;;;3.58;1.10;;;36.60;34.10;;;;;;5109721;28;20032;-80
2022/08/01 09:39:29;;;;;;;4.47;0.80;;;36.70;34.90;;;;;;5110096;28;20034;-81
2022/08/01 09:41:56;;;;;;;3.75;0.65;;;36.70;32.50;;;;;;5109477;28;20048;-82
2022/08/01 09:44:39;;;;;;;2.03;0.70;;;36.90;34.70;;;;;;5091528;28;20043;-81
2022/08/01 09:47:05;;;;;;;2.45;0.90;;;36.80;33.20;;;;;;5091012;28;20035;-80
2022/08/01 09:49:34;;;;;;;8.00;0.70;;;36.70;34.10;;;;;;5091040;28;20020;-80
2022/08/01 09:52:16;;;;;;;2.03;0.80;;;37.00;33.70;;;;;;5107423;28;20028;-81
2022/08/01 09:54:43;;;;;;;3.78;0.70;;;37.20;34.10;;;;;;5091154;28;20023;-81
2022/08/01 09:57:12;;;;;;;2.22;0.80;;;37.60;34.20;;;;;;5090482;28;20047;-80
2022/08/01 09:59:41;;;;;;;2.08;1.05;;;37.70;33.10;;;;;;5090804;28;20068;-81
2022/08/01 10:02:08;;;;;;;2.05;0.70;;;37.80;34.10;;;;;;5090739;28;20039;-81
2022/08/01 10:04:34;;;;;;;4.95;0.80;;;37.70;34.00;;;;;;5090638;28;20024;-81
2022/08/01 10:07:06;;;;;;;3.60;0.82;;;37.80;33.40;;;;;;5090942;28;20034;-80
2022/08/01 10:09:35;;;;;;;3.78;0.88;;;37.90;32.80;;;;;;5090787;28;20071;-81
2022/08/01 10:12:02;;;;;;;3.53;0.80;;;37.70;31.10;;;;;;5090502;28;20024;-80
2022/08/01 10:14:29;;;;;;;1.65;0.60;;;36.70;30.60;;;;;;5108526;28;20026;-80
2022/08/01 10:16:56;;;;;;;1.85;0.60;;;35.80;33.80;;;;;;5109293;28;20051;-80
2022/08/01 10:19:24;;;;;;;2.05;0.80;;;35.10;35.10;;;;;;5090805;28;20486;-80
2022/08/01 10:21:54;;;;;;;2.35;0.52;;;34.60;36.10;;;;;;5089764;28;20043;-81
2022/08/01 10:24:21;;;;;;;1.75;0.95;;;34.00;35.30;;;;;;5109242;28;20031;-81
2022/08/01 10:27:08;;;;;;;2.75;0.60;;;33.80;36.90;;;;;;5090323;28;20035;-79
2022/08/01 10:30:03;;;;;;;2.15;0.73;;;33.60;37.50;;;;;;5108165;28;20144;-81
2022/08/01 10:32:30;;;;;;;8.23;0.50;;;33.20;38.20;;;;;;5090244;28;20122;-81
2022/08/01 10:34:56;;;;;;;1.88;0.60;;;33.00;39.10;;;;;;5090346;28;20040;-80
2022/08/01 10:37:23;;;;;;;2.67;0.60;;;32.90;37.80;;;;;;5108559;28;20153;-81
2022/08/01 10:39:51;;;;;;;2.38;0.68;;;32.70;38.90;;;;;;5108650;28;20042;-81
2022/08/01 10:42:18;;;;;;;1.42;0.77;;;32.60;39.30;;;;;;5089910;28;20024;-80
2022/08/01 10:44:47;;;;;;;2.72;0.93;;;32.40;38.90;;;;;;5090004;28;20032;-82
2022/08/01 10:47:17;;;;;;;1.10;0.50;;;32.30;38.10;;;;;;5090500;28;20111;-82
2022/08/01 10:49:56;;;;;;;2.00;0.60;;;31.70;39.20;;;;;;5089956;28;20024;-82
2022/08/01 10:52:21;;;;;;;1.52;0.60;;;31.60;42.10;;;;;;5089804;28;20028;-84
2022/08/01 10:54:47;;;;;;;2.58;0.60;;;31.50;40.70;;;;;;5090330;28;20043;-84
2022/08/01 10:57:14;;;;;;;2.13;0.80;;;31.30;39.60;;;;;;5089495;28;20030;-81
2022/08/01 10:59:51;;;;;;;2.20;0.70;;;31.20;39.30;;;;;;5107856;28;20507;-83
2022/08/01 11:02:29;;;;;;;7.38;0.73;;;31.10;39.50;;;;;;5089838;28;20039;-82
2022/08/01 11:05:22;;;;;;;1.40;0.75;;;31.00;40.30;;;;;;5089804;28;20071;-81
2022/08/01 11:07:52;;;;;;;2.08;0.60;;;31.00;39.70;;;;;;5084828;28;20047;-83
2022/08/01 11:10:28;;;;;;;3.13;0.65;;;31.00;38.90;;;;;;5090728;28;20043;-83
2022/08/01 11:12:53;;;;;;;2.05;0.70;;;30.90;38.30;;;;;;5089314;28;20063;-83
2022/08/01 11:15:24;;;;;;;1.90;0.50;;;30.50;38.20;;;;;;5089914;28;20059;-82
2022/08/01 11:17:51;;;;;;;1.88;0.93;;;30.30;39.30;;;;;;5089606;28;20031;-83
2022/08/01 11:20:20;;;;;;;4.68;0.70;;;30.30;40.10;;;;;;5089469;28;20408;-83
2022/08/01 11:23:04;;;;;;;3.28;0.65;;;30.40;39.20;;;;;;5089599;28;20073;-83
2022/08/01 11:25:36;;;;;;;1.52;0.60;;;30.40;39.50;;;;;;5090408;28;20435;-83
2022/08/01 11:28:15;;;;;;;1.52;0.50;;;30.40;39.90;;;;;;5089394;28;20053;-82
2022/08/01 11:30:42;;;;;;;1.10;0.50;;;30.50;38.10;;;;;;5089253;28;20039;-83
2022/08/01 11:33:07;;;;;;;4.00;0.82;;;30.40;38.60;;;;;;5107911;28;20030;-82
2022/08/01 11:35:35;;;;;;;7.53;0.75;;;30.50;39.60;;;;;;5089303;28;20479;-83
2022/08/01 11:38:29;;;;;;;3.10;0.55;;;30.60;41.40;;;;;;5107675;28;20024;-84
2022/08/01 11:41:23;;;;;;;1.73;0.60;;;30.60;39.90;;;;;;5089817;28;20118;-83
2022/08/01 11:44:01;;;;;;;5.07;1.38;;;30.70;39.50;;;;;;5089602;28;20156;-83
2022/08/01 11:46:49;;;;;;;0.90;0.50;;;30.70;41.00;;;;;;5088852;28;20039;-83
2022/08/01 11:49:27;;;;;;;0.73;0.52;;;30.90;40.50;;;;;;5088915;28;20027;-83
2022/08/01 11:52:01;;;;;;;1.73;0.60;;;31.00;38.80;;;;;;5107156;28;20042;-81
2022/08/01 11:54:40;;;;;;;0.98;0.60;;;31.00;36.80;;;;;;5089286;28;20481;-84
2022/08/01 11:57:15;;;;;;;3.75;0.60;;;31.00;38.30;;;;;;5106780;28;20560;-83
2022/08/01 11:59:49;;;;;;;2.00;0.63;;;31.00;38.80;;;;;;5089193;28;20028;-83
2022/08/01 12:02:22;;;;;;;1.27;0.70;;;31.00;39.00;;;;;;5107829;28;20024;-83
2022/08/01 12:05:12;;;;;;;2.35;0.75;;;31.10;37.70;;;;;;5088937;28;20476;-83
2022/08/01 12:07:41;;;;;;;1.50;0.70;;;31.10;36.50;;;;;;5088935;28;20050;-83
2022/08/01 12:10:18;;;;;;;0.80;0.52;;;31.00;37.40;;;;;;5088958;28;20051;-83
2022/08/01 12:12:43;;;;;;;1.60;0.57;;;31.00;38.10;;;;;;5106851;28;20035;-83
2022/08/01 12:15:10;;;;;;;0.93;0.50;;;31.00;37.00;;;;;;5106260;28;20028;-84
2022/08/01 12:17:40;;;;;;;1.20;0.70;;;31.00;36.00;;;;;;5106050;28;20031;-83
2022/08/01 12:20:12;;;;;;;6.07;0.75;;;31.00;37.30;;;;;;5106108;28;20051;-83
2022/08/01 12:22:38;;;;;;;4.72;0.50;;;30.90;35.30;;;;;;5093289;28;20027;-83
2022/08/01 12:25:18;;;;;;;4.55;0.80;;;30.80;36.60;;;;;;5088655;28;20455;-84
2022/08/01 12:27:45;;;;;;;6.00;0.80;;;30.90;36.90;;;;;;5088605;28;20032;-83
2022/08/01 12:30:22;;;;;;;2.67;0.57;;;30.80;35.70;;;;;;5089009;28;20062;-83
2022/08/01 12:32:49;;;;;;;10.35;1.10;;;30.70;36.30;;;;;;5088802;28;20024;-81
2022/08/01 12:35:18;;;;;;;2.40;0.70;;;30.60;35.90;;;;;;5106981;28;20028;-83
2022/08/01 12:37:46;;;;;;;6.53;0.88;;;30.60;37.00;;;;;;5088024;28;20024;-83
2022/08/01 12:40:16;;;;;;;1.50;0.50;;;30.70;37.80;;;;;;5089359;28;20123;-82
2022/08/01 12:42:44;;;;;;;2.13;0.60;;;30.80;37.00;;;;;;5088633;28;20020;-82
2022/08/01 12:45:13;;;;;;;2.65;0.82;;;30.60;37.00;;;;;;5087842;28;20031;-81
2022/08/01 12:47:39;;;;;;;2.42;0.77;;;30.80;38.30;;;;;;5106725;28;20019;-83
2022/08/01 12:50:12;;;;;;;1.20;0.50;;;30.90;36.40;;;;;;5106852;28;20131;-83
2022/08/01 12:52:38;;;;;;;2.42;0.63;;;31.20;37.30;;;;;;5089134;28;20038;-82
2022/08/01 12:55:43;;;;;;;1.77;0.85;;;31.30;36.60;;;;;;5088084;28;20560;-82
2022/08/01 12:58:11;;;;;;;2.10;0.80;;;31.50;35.80;;;;;;5072389;28;20134;-83